Time;durP1;ratioP1;P1;durP2;ratioP2;P2;SDS_P1;SDS_P2;PMS_P1;PMS_P2;Temp;Humidity;BMP_temperature;BMP_pressure;BME280_temperature;BME280_humidity;BME280_pressure;Samples;Min_cycle;Max_cycle;Signal;HPM_P1;HPM_P2
2023/08/16 00:01:01;;;;;;;7.40;6.80;;;;;;;21.77;100.00;101260.09;5016831;28;20416;-86
2023/08/16 00:03:32;;;;;;;6.47;5.93;;;;;;;21.76;100.00;101263.94;5015218;28;20422;-83
2023/08/16 00:06:09;;;;;;;9.10;8.20;;;;;;;21.69;100.00;101263.31;5017224;28;20417;-83
2023/08/16 00:08:39;;;;;;;8.53;7.73;;;;;;;21.71;100.00;101260.31;5013804;28;20504;-82
2023/08/16 00:11:10;;;;;;;7.90;7.20;;;;;;;21.67;100.00;101266.38;5015776;28;20400;-83
2023/08/16 00:13:43;;;;;;;9.37;8.67;;;;;;;21.89;100.00;101274.44;5015564;28;20416;-85
2023/08/16 00:16:12;;;;;;;9.17;8.27;;;;;;;21.86;100.00;101285.19;5018294;28;20429;-84
2023/08/16 00:18:41;;;;;;;8.13;7.40;;;;;;;21.82;100.00;101293.16;5014816;28;20484;-86
2023/08/16 00:21:11;;;;;;;9.00;8.20;;;;;;;21.72;100.00;101301.38;5015571;28;21031;-85
2023/08/16 00:23:41;;;;;;;9.30;6.87;;;;;;;21.73;100.00;101305.78;5007046;28;20422;-87
2023/08/16 00:26:16;;;;;;;9.20;7.33;;;;;;;21.73;100.00;101292.03;5016577;28;20430;-83
2023/08/16 00:28:49;;;;;;;8.17;6.30;;;;;;;21.76;100.00;101291.47;5016731;28;20424;-85
2023/08/16 00:31:19;;;;;;;6.70;6.10;;;;;;;21.73;100.00;101292.03;5011603;28;20445;-83
2023/08/16 00:33:52;;;;;;;9.20;7.53;;;;;;;21.71;100.00;101266.66;5013924;28;20435;-84
2023/08/16 00:36:22;;;;;;;6.60;6.00;;;;;;;21.77;100.00;101265.59;5013745;28;20412;-83
2023/08/16 00:38:51;;;;;;;6.83;6.23;;;;;;;21.74;100.00;101266.09;5013371;28;20537;-83
2023/08/16 00:41:22;;;;;;;7.37;6.60;;;;;;;21.74;100.00;101285.38;5012011;28;20546;-84
2023/08/16 00:43:51;;;;;;;8.20;7.40;;;;;;;21.75;100.00;101288.97;5011135;28;20425;-83
2023/08/16 00:46:21;;;;;;;8.00;7.20;;;;;;;21.71;100.00;101294.19;5012649;28;20464;-84
2023/08/16 00:48:51;;;;;;;10.67;6.90;;;;;;;21.62;100.00;101285.63;5016682;28;20602;-84
2023/08/16 00:51:21;;;;;;;6.70;6.10;;;;;;;21.63;100.00;101290.03;5016438;28;20773;-84
2023/08/16 00:53:51;;;;;;;7.87;7.13;;;;;;;21.54;100.00;101290.78;5015843;28;20517;-85
2023/08/16 00:56:22;;;;;;;6.97;6.33;;;;;;;21.56;100.00;101283.09;5017872;28;20434;-83
2023/08/16 00:58:51;;;;;;;8.10;7.07;;;;;;;21.53;100.00;101281.69;5015704;28;20427;-84
2023/08/16 01:01:21;;;;;;;6.33;5.73;;;;;;;21.52;100.00;101276.44;5018339;28;20433;-82
2023/08/16 01:03:50;;;;;;;7.03;6.30;;;;;;;21.57;100.00;101273.72;5017601;28;20549;-84
2023/08/16 01:06:20;;;;;;;6.20;5.60;;;;;;;21.54;100.00;101274.28;5011924;28;20426;-82
2023/08/16 01:08:49;;;;;;;6.73;6.13;;;;;;;21.62;100.00;101282.03;5016340;28;20477;-83
2023/08/16 01:11:24;;;;;;;7.43;6.63;;;;;;;21.58;100.00;101278.16;5015839;28;20783;-83
2023/08/16 01:13:59;;;;;;;6.80;6.20;;;;;;;21.52;100.00;101277.28;5014647;28;20489;-86
2023/08/16 01:16:30;;;;;;;7.17;6.47;;;;;;;21.59;100.00;101275.09;5016249;28;20480;-83
2023/08/16 01:19:00;;;;;;;9.53;6.93;;;;;;;21.66;100.00;101277.63;5015377;28;20436;-82
2023/08/16 01:21:33;;;;;;;7.80;7.00;;;;;;;21.70;100.00;101276.00;5019119;28;20432;-82
2023/08/16 01:24:09;;;;;;;9.33;7.20;;;;;;;21.76;100.00;101260.34;5016043;28;20517;-84
2023/08/16 01:26:41;;;;;;;8.20;7.17;;;;;;;21.67;100.00;101271.03;5015971;28;20456;-84
2023/08/16 01:29:12;;;;;;;6.33;5.83;;;;;;;21.58;100.00;101267.13;5015611;28;20485;-83
2023/08/16 01:31:41;;;;;;;7.73;7.00;;;;;;;21.54;100.00;101274.28;5018289;28;20493;-83
2023/08/16 01:34:10;;;;;;;10.87;7.43;;;;;;;21.48;100.00;101267.06;5019233;28;20433;-83
2023/08/16 01:36:41;;;;;;;12.27;7.27;;;;;;;21.49;100.00;101275.06;5015922;28;20465;-83
2023/08/16 01:39:10;;;;;;;9.40;8.60;;;;;;;21.40;100.00;101273.03;5013647;28;20416;-83
2023/08/16 01:41:44;;;;;;;8.93;8.13;;;;;;;21.42;100.00;101274.47;5015836;28;20426;-82
2023/08/16 01:44:15;;;;;;;8.50;7.83;;;;;;;21.48;100.00;101278.09;5012516;28;20469;-84
2023/08/16 01:46:45;;;;;;;8.67;7.87;;;;;;;21.45;100.00;101281.34;5018107;28;20508;-83
2023/08/16 01:49:15;;;;;;;8.40;7.50;;;;;;;21.47;100.00;101277.25;5022051;28;20477;-82
2023/08/16 01:51:44;;;;;;;8.60;7.87;;;;;;;21.36;100.00;101280.19;5022076;28;20426;-84
2023/08/16 01:54:14;;;;;;;11.67;7.63;;;;;;;21.32;100.00;101273.56;5022363;28;20484;-84
2023/08/16 01:56:45;;;;;;;8.50;7.80;;;;;;;21.28;100.00;101280.69;5021320;28;20516;-84
2023/08/16 01:59:14;;;;;;;8.40;7.57;;;;;;;21.22;100.00;101286.16;5018652;28;20443;-82
2023/08/16 02:01:43;;;;;;;8.20;7.37;;;;;;;21.14;100.00;101278.38;5014740;28;20433;-84
2023/08/16 02:04:59;;;;;;;9.07;8.23;;;;;;;21.03;100.00;101276.59;5011634;28;20492;-84
2023/08/16 02:07:28;;;;;;;10.47;9.47;;;;;;;21.05;100.00;101279.94;5016634;28;20475;-84
2023/08/16 02:09:57;;;;;;;11.10;7.77;;;;;;;21.02;100.00;101277.69;5008420;28;20434;-85
2023/08/16 02:12:28;;;;;;;9.83;8.63;;;;;;;21.10;100.00;101281.91;5017261;28;20446;-86
2023/08/16 02:14:57;;;;;;;11.07;10.07;;;;;;;21.04;100.00;101272.75;5002455;28;20800;-84
2023/08/16 02:17:26;;;;;;;10.83;9.83;;;;;;;21.01;100.00;101276.03;4996660;28;20512;-85
2023/08/16 02:19:56;;;;;;;9.57;8.73;;;;;;;21.06;100.00;101281.56;5004822;28;20483;-85
2023/08/16 02:22:27;;;;;;;10.13;9.20;;;;;;;21.04;100.00;101278.25;5005216;28;20436;-86
2023/08/16 02:25:11;;;;;;;10.07;9.17;;;;;;;21.02;100.00;101274.94;5005917;28;20507;-86
2023/08/16 02:27:42;;;;;;;10.40;9.50;;;;;;;20.98;100.00;101267.47;5001985;28;20548;-87
2023/08/16 02:30:11;;;;;;;10.57;9.43;;;;;;;20.95;100.00;101271.59;5006141;28;20837;-86
2023/08/16 02:32:40;;;;;;;11.57;10.37;;;;;;;20.95;100.00;101263.34;5005424;28;20449;-86
2023/08/16 02:35:10;;;;;;;11.67;10.60;;;;;;;20.97;100.00;101266.63;5000909;28;20453;-84
2023/08/16 02:37:40;;;;;;;12.00;11.00;;;;;;;21.19;100.00;101263.84;5024131;28;20452;-83
2023/08/16 02:40:10;;;;;;;13.70;11.40;;;;;;;21.11;100.00;101265.09;5020985;28;20424;-82
2023/08/16 02:42:39;;;;;;;12.93;11.73;;;;;;;21.12;100.00;101274.19;5024335;28;20418;-84
2023/08/16 02:45:11;;;;;;;11.43;10.43;;;;;;;21.06;100.00;101276.06;5012319;28;20456;-85
2023/08/16 02:47:40;;;;;;;12.70;11.50;;;;;;;21.03;100.00;101270.25;5003486;28;20524;-86
2023/08/16 02:50:09;;;;;;;14.73;12.37;;;;;;;21.10;100.00;101270.88;5002228;28;20442;-86
2023/08/16 02:52:39;;;;;;;14.33;12.90;;;;;;;21.07;100.00;101279.66;5005962;28;20433;-86
2023/08/16 02:55:09;;;;;;;13.87;12.47;;;;;;;21.11;100.00;101276.09;4999695;28;20423;-85
2023/08/16 02:57:38;;;;;;;12.93;11.73;;;;;;;21.12;100.00;101280.53;5001482;28;20477;-85
2023/08/16 03:00:10;;;;;;;12.23;11.13;;;;;;;21.10;100.00;101292.91;4999235;28;20412;-87
2023/08/16 03:02:39;;;;;;;14.10;12.90;;;;;;;21.09;100.00;101292.06;5001221;28;20529;-86
2023/08/16 03:05:10;;;;;;;15.60;14.30;;;;;;;21.09;100.00;101296.75;5000565;28;20444;-83
2023/08/16 03:07:40;;;;;;;19.93;13.43;;;;;;;21.07;100.00;101293.41;4998827;28;20473;-87
2023/08/16 03:10:10;;;;;;;14.93;13.43;;;;;;;21.20;100.00;101299.31;5005600;28;20430;-86
2023/08/16 03:12:39;;;;;;;15.17;13.50;;;;;;;21.28;100.00;101298.03;4998625;28;20941;-85
2023/08/16 03:15:11;;;;;;;15.73;14.33;;;;;;;21.18;100.00;101307.03;5004934;28;21036;-85
2023/08/16 03:17:40;;;;;;;15.70;14.20;;;;;;;21.22;100.00;101304.56;4998454;28;20553;-85
2023/08/16 03:20:10;;;;;;;16.10;14.67;;;;;;;21.19;100.00;101303.19;4995054;28;20465;-84
2023/08/16 03:22:40;;;;;;;16.13;14.50;;;;;;;21.22;100.00;101302.66;5003277;28;20461;-85
2023/08/16 03:25:09;;;;;;;14.63;13.30;;;;;;;21.16;100.00;101303.69;5006155;28;20464;-84
2023/08/16 03:27:38;;;;;;;14.90;13.50;;;;;;;21.13;100.00;101315.25;5001059;28;20473;-87
2023/08/16 03:30:11;;;;;;;17.83;13.80;;;;;;;21.11;100.00;101317.38;4997798;28;20808;-87
2023/08/16 03:32:42;;;;;;;15.50;13.10;;;;;;;21.08;100.00;101317.09;5011793;28;20441;-87
2023/08/16 03:35:11;;;;;;;14.60;13.20;;;;;;;21.04;100.00;101315.97;4998447;28;20412;-86
2023/08/16 03:37:40;;;;;;;15.83;14.23;;;;;;;21.04;100.00;101322.28;5004269;28;20476;-86
2023/08/16 03:40:11;;;;;;;13.27;12.17;;;;;;;21.05;100.00;101325.88;5000117;28;20442;-87
2023/08/16 03:42:40;;;;;;;16.33;14.63;;;;;;;21.13;100.00;101318.00;4998555;28;20422;-86
2023/08/16 03:45:11;;;;;;;15.97;14.57;;;;;;;21.06;100.00;101322.00;5000694;28;20465;-86
2023/08/16 03:47:41;;;;;;;15.83;14.40;;;;;;;21.12;100.00;101318.22;5002308;28;20464;-87
2023/08/16 03:50:11;;;;;;;16.40;14.80;;;;;;;21.05;100.00;101323.13;4999816;28;20819;-85
2023/08/16 03:52:40;;;;;;;17.07;15.30;;;;;;;21.01;100.00;101322.78;5000269;28;20434;-86
2023/08/16 03:55:10;;;;;;;17.50;15.80;;;;;;;20.99;100.00;101325.00;4999270;28;20445;-85
2023/08/16 03:57:39;;;;;;;17.27;15.63;;;;;;;20.97;100.00;101326.31;4999595;28;20461;-86
2023/08/16 04:00:11;;;;;;;17.73;16.03;;;;;;;21.00;100.00;101321.16;4998870;28;20454;-86
2023/08/16 04:02:43;;;;;;;18.10;16.40;;;;;;;20.97;100.00;101318.91;4999424;28;20504;-86
2023/08/16 04:05:14;;;;;;;17.87;16.17;;;;;;;20.94;100.00;101324.94;4995823;28;20473;-84
2023/08/16 04:07:43;;;;;;;15.80;14.30;;;;;;;20.94;100.00;101327.69;5002426;28;20501;-86
2023/08/16 04:10:12;;;;;;;18.10;16.13;;;;;;;20.99;100.00;101335.16;4998268;28;20455;-85
2023/08/16 04:12:41;;;;;;;17.37;15.60;;;;;;;20.95;100.00;101334.88;5018590;28;20442;-87
2023/08/16 04:15:12;;;;;;;17.43;15.67;;;;;;;20.99;100.00;101341.50;4997179;28;20424;-86
2023/08/16 04:17:41;;;;;;;16.50;15.20;;;;;;;21.00;100.00;101337.66;4993645;28;20454;-85
2023/08/16 04:20:12;;;;;;;18.57;16.87;;;;;;;21.05;100.00;101340.47;4997058;28;20496;-84
2023/08/16 04:22:42;;;;;;;18.07;16.33;;;;;;;21.05;100.00;101345.97;5003853;28;20909;-86
2023/08/16 04:25:12;;;;;;;16.17;14.73;;;;;;;21.05;100.00;101345.97;4999970;28;20456;-86
2023/08/16 04:27:41;;;;;;;19.10;15.70;;;;;;;21.08;100.00;101350.09;4997206;28;20453;-85
2023/08/16 04:30:13;;;;;;;18.80;17.00;;;;;;;21.09;100.00;101352.59;4998891;28;20489;-84
2023/08/16 04:32:42;;;;;;;19.03;17.20;;;;;;;21.21;100.00;101349.69;4999273;28;20481;-82
2023/08/16 04:35:11;;;;;;;17.87;16.27;;;;;;;21.10;100.00;101354.28;5001331;28;20477;-87
2023/08/16 04:37:40;;;;;;;19.00;17.30;;;;;;;21.17;100.00;101360.41;5000629;28;20465;-84
2023/08/16 04:40:12;;;;;;;17.40;15.50;;;;;;;21.27;100.00;101358.84;5012133;28;20861;-83
2023/08/16 04:42:41;;;;;;;16.10;14.60;;;;;;;21.19;100.00;101365.66;5017765;28;20822;-87
2023/08/16 04:45:12;;;;;;;16.97;15.37;;;;;;;21.27;100.00;101370.69;4998426;28;20466;-85
2023/08/16 04:47:42;;;;;;;16.83;15.23;;;;;;;21.34;100.00;101364.97;5003552;28;20478;-85
2023/08/16 04:50:12;;;;;;;17.73;16.03;;;;;;;21.21;100.00;101367.06;5004142;28;20408;-85
2023/08/16 04:52:41;;;;;;;17.73;15.97;;;;;;;21.16;100.00;101369.75;5004105;28;20465;-86
2023/08/16 04:55:10;;;;;;;16.97;15.50;;;;;;;21.21;100.00;101375.31;5013738;28;20942;-86
2023/08/16 04:57:42;;;;;;;15.83;14.30;;;;;;;21.25;100.00;101373.69;4997125;28;20505;-86
2023/08/16 05:00:15;;;;;;;18.23;16.53;;;;;;;21.32;100.00;101373.47;5001435;28;20437;-84
2023/08/16 05:02:52;;;;;;;18.17;16.50;;;;;;;21.22;100.00;101374.22;4998645;28;20509;-84
2023/08/16 05:05:21;;;;;;;18.87;16.87;;;;;;;21.23;100.00;101375.88;5016860;28;20471;-86
2023/08/16 05:07:50;;;;;;;18.87;16.83;;;;;;;21.20;100.00;101379.16;5013120;28;20542;-84
2023/08/16 05:10:20;;;;;;;18.30;16.67;;;;;;;21.33;100.00;101379.81;5006765;28;20445;-84
2023/08/16 05:12:51;;;;;;;17.33;15.60;;;;;;;21.19;100.00;101383.00;4997707;28;20442;-85
2023/08/16 05:15:22;;;;;;;18.30;16.50;;;;;;;21.23;100.00;101388.81;5001165;28;20430;-84
2023/08/16 05:17:52;;;;;;;17.70;15.97;;;;;;;21.37;100.00;101387.28;5015194;28;20482;-83
2023/08/16 05:20:21;;;;;;;19.23;17.40;;;;;;;21.44;100.00;101390.69;5015365;28;20492;-82
2023/08/16 05:22:50;;;;;;;18.73;17.13;;;;;;;21.48;100.00;101399.22;5013812;28;20437;-84
2023/08/16 05:25:20;;;;;;;20.47;18.33;;;;;;;21.52;100.00;101397.63;5004129;28;20473;-86
2023/08/16 05:27:49;;;;;;;17.53;15.97;;;;;;;21.55;100.00;101394.31;5001703;28;20530;-85
2023/08/16 05:30:18;;;;;;;15.90;14.53;;;;;;;21.59;100.00;101395.47;5001161;28;20434;-87
2023/08/16 05:32:48;;;;;;;23.23;16.67;;;;;;;21.66;100.00;101404.34;5002435;28;20425;-85
2023/08/16 05:35:18;;;;;;;17.03;15.53;;;;;;;21.69;100.00;101406.56;5001872;28;20469;-86
2023/08/16 05:37:47;;;;;;;22.03;19.70;;;;;;;21.69;100.00;101409.31;5004477;28;20491;-87
2023/08/16 05:40:16;;;;;;;19.23;17.40;;;;;;;21.72;100.00;101414.31;5002407;28;20452;-88
2023/08/16 05:42:45;;;;;;;21.80;19.60;;;;;;;21.69;100.00;101417.56;4999831;28;20462;-84
2023/08/16 05:45:15;;;;;;;20.33;18.33;;;;;;;21.82;100.00;101419.91;5004607;28;20432;-85
2023/08/16 05:47:44;;;;;;;20.07;18.20;;;;;;;21.84;100.00;101423.19;5001634;28;20462;-82
2023/08/16 05:50:15;;;;;;;22.60;20.37;;;;;;;21.67;100.00;101430.78;5013381;28;20515;-82
2023/08/16 05:52:44;;;;;;;22.43;20.13;;;;;;;21.67;100.00;101430.78;4999620;28;20512;-84
2023/08/16 05:55:14;;;;;;;21.40;19.33;;;;;;;21.59;100.00;101429.34;4997165;28;20492;-85
2023/08/16 05:57:43;;;;;;;22.00;19.80;;;;;;;21.58;100.00;101432.38;5001704;28;20425;-85
2023/08/16 06:00:12;;;;;;;22.90;20.77;;;;;;;21.63;100.00;101430.50;4998633;28;20447;-84
2023/08/16 06:02:43;;;;;;;22.70;20.30;;;;;;;21.61;100.00;101432.66;5001122;28;20426;-86
2023/08/16 06:05:14;;;;;;;22.43;20.43;;;;;;;21.73;100.00;101435.25;5000773;28;20469;-84
2023/08/16 06:07:43;;;;;;;20.57;18.77;;;;;;;21.82;100.00;101433.66;4998719;28;20979;-84
2023/08/16 06:12:47;;;;;;;21.03;19.13;;;;;;;22.22;100.00;101435.09;4950803;28;20436;-86
2023/08/16 06:15:18;;;;;;;20.87;18.80;;;;;;;22.10;100.00;101440.78;4952006;29;20520;-87
2023/08/16 06:17:50;;;;;;;18.53;16.57;;;;;;;22.43;100.00;101447.88;4937946;29;20436;-85
2023/08/16 06:20:29;;;;;;;16.80;15.07;;;;;;;22.69;100.00;101438.63;4940734;29;20990;-86
2023/08/16 06:23:07;;;;;;;15.77;13.73;;;;;;;23.04;97.65;101439.91;4972561;28;20450;-85
2023/08/16 06:25:37;;;;;;;15.70;14.10;;;;;;;22.95;95.90;101450.59;4993045;28;20459;-85
2023/08/16 06:28:07;;;;;;;13.57;12.33;;;;;;;23.25;91.36;101450.69;4971681;28;20454;-85
2023/08/16 06:30:37;;;;;;;13.60;12.10;;;;;;;23.10;93.34;101458.09;4970633;28;20432;-86
2023/08/16 06:33:11;;;;;;;12.63;11.40;;;;;;;23.25;90.54;101460.91;4954904;29;20518;-85
2023/08/16 06:36:09;;;;;;;14.40;13.10;;;;;;;23.23;90.33;101461.22;4976470;29;20483;-85
2023/08/16 06:38:43;;;;;;;15.33;12.10;;;;;;;23.48;90.69;101457.66;4974133;29;20415;-85
2023/08/16 06:41:14;;;;;;;12.80;11.70;;;;;;;23.61;86.60;101461.84;4952253;29;20487;-86
2023/08/16 06:43:45;;;;;;;11.77;10.47;;;;;;;23.87;84.17;101466.25;4957222;29;20567;-86
2023/08/16 06:46:15;;;;;;;10.97;9.83;;;;;;;23.86;83.71;101463.78;4957848;29;20518;-85
2023/08/16 06:48:46;;;;;;;10.87;9.60;;;;;;;23.97;82.08;101466.25;4977722;29;20440;-86
2023/08/16 06:51:22;;;;;;;10.73;9.70;;;;;;;23.98;81.56;101467.91;4990184;28;20430;-86
2023/08/16 06:53:53;;;;;;;10.87;9.90;;;;;;;24.17;79.78;101471.78;4984270;28;20439;-86
2023/08/16 06:56:23;;;;;;;14.23;10.87;;;;;;;24.24;80.51;101477.03;4964702;28;20446;-85
2023/08/16 06:58:53;;;;;;;12.50;9.80;;;;;;;24.17;80.55;101473.72;4981011;28;20400;-86
2023/08/16 07:01:22;;;;;;;9.77;8.90;;;;;;;24.48;79.13;101475.34;4981277;28;20442;-85
2023/08/16 07:03:56;;;;;;;13.73;9.87;;;;;;;24.49;79.07;101478.94;4979635;28;20428;-86
2023/08/16 07:06:27;;;;;;;14.10;10.23;;;;;;;24.53;79.64;101475.31;4995393;28;20463;-86
2023/08/16 07:08:57;;;;;;;11.10;10.10;;;;;;;24.31;79.95;101485.88;4979793;28;20487;-86
2023/08/16 07:11:27;;;;;;;12.33;9.97;;;;;;;23.94;81.84;101479.81;4980453;28;20539;-85
2023/08/16 07:13:59;;;;;;;11.47;10.47;;;;;;;23.74;83.64;101484.22;4961658;28;20459;-84
2023/08/16 07:16:56;;;;;;;11.17;9.70;;;;;;;24.29;81.89;101474.28;4979535;28;20442;-85
2023/08/16 07:19:26;;;;;;;12.93;11.37;;;;;;;24.53;79.29;101477.25;4967231;28;20452;-84
2023/08/16 07:21:57;;;;;;;14.23;9.53;;;;;;;24.58;79.39;101480.84;4962336;28;20473;-85
2023/08/16 07:24:26;;;;;;;12.90;11.53;;;;;;;24.67;78.99;101476.38;4990743;28;20457;-85
2023/08/16 07:26:58;;;;;;;10.90;9.87;;;;;;;24.49;78.45;101474.22;4988713;28;20447;-85
2023/08/16 07:29:28;;;;;;;11.10;10.10;;;;;;;24.74;78.03;101480.78;4979018;28;20423;-85
2023/08/16 07:32:00;;;;;;;10.97;9.97;;;;;;;24.85;77.07;101482.38;4964097;28;20483;-84
2023/08/16 07:34:30;;;;;;;11.27;9.83;;;;;;;24.92;76.60;101477.41;4963840;28;20479;-85
2023/08/16 07:37:01;;;;;;;11.13;8.00;;;;;;;25.06;76.33;101484.81;4980333;28;20432;-85
2023/08/16 07:39:32;;;;;;;9.67;8.77;;;;;;;25.14;74.87;101486.16;4963190;28;20539;-84
2023/08/16 07:42:02;;;;;;;10.30;9.30;;;;;;;25.15;74.18;101487.00;4975873;28;20455;-86
2023/08/16 07:44:32;;;;;;;10.17;9.00;;;;;;;25.47;73.69;101490.94;4957118;29;20458;-85
2023/08/16 07:47:02;;;;;;;11.50;9.33;;;;;;;25.60;72.36;101491.47;4980681;28;20522;-84
2023/08/16 07:49:33;;;;;;;12.23;10.10;;;;;;;25.70;72.68;101502.47;4952927;28;20451;-84
2023/08/16 07:52:04;;;;;;;13.10;8.63;;;;;;;25.87;72.52;101494.56;4960134;29;20487;-85
2023/08/16 07:54:33;;;;;;;11.27;9.57;;;;;;;26.30;70.93;101504.75;4962533;29;20436;-86
2023/08/16 07:57:03;;;;;;;10.20;9.20;;;;;;;26.22;70.91;101497.06;4970514;28;20441;-86
2023/08/16 07:59:33;;;;;;;11.03;8.87;;;;;;;26.33;69.82;101506.13;4952061;29;20869;-84
2023/08/16 08:02:02;;;;;;;10.80;7.90;;;;;;;26.56;68.96;101507.25;4957507;28;20730;-85
2023/08/16 08:04:31;;;;;;;11.40;9.20;;;;;;;26.43;67.77;101510.75;4970757;28;20537;-85
2023/08/16 08:07:02;;;;;;;10.60;9.50;;;;;;;26.23;68.03;101512.59;4963760;28;20530;-85
2023/08/16 08:09:32;;;;;;;10.40;7.97;;;;;;;26.23;68.60;101509.00;4979632;28;20437;-84
2023/08/16 08:12:01;;;;;;;8.63;7.80;;;;;;;26.24;69.50;101505.91;4958969;28;20892;-84
2023/08/16 08:14:31;;;;;;;8.73;7.93;;;;;;;26.28;69.29;101512.56;4950430;29;20444;-85
2023/08/16 08:17:01;;;;;;;9.77;7.70;;;;;;;26.31;69.34;101514.72;4979123;28;20443;-85
2023/08/16 08:19:34;;;;;;;9.40;8.00;;;;;;;26.14;70.70;101511.50;4978966;28;20512;-84
2023/08/16 08:22:05;;;;;;;10.40;8.57;;;;;;;26.39;70.52;101519.63;4976953;28;20452;-84
2023/08/16 08:24:37;;;;;;;8.27;7.57;;;;;;;26.43;70.80;101519.06;4982659;28;20429;-85
2023/08/16 08:27:06;;;;;;;9.33;8.60;;;;;;;26.41;69.96;101518.53;4968863;28;20495;-85
2023/08/16 08:29:38;;;;;;;9.40;8.40;;;;;;;26.50;69.96;101525.09;4962592;28;20503;-85
2023/08/16 08:32:08;;;;;;;8.00;7.27;;;;;;;26.28;67.74;101529.19;4961301;29;20465;-86
2023/08/16 08:34:40;;;;;;;10.23;7.33;;;;;;;26.31;67.78;101525.81;4962684;28;20436;-85
2023/08/16 08:37:11;;;;;;;11.83;7.07;;;;;;;26.28;65.27;101534.75;4959176;29;20458;-85
2023/08/16 08:39:42;;;;;;;10.00;6.87;;;;;;;26.46;64.81;101540.66;4968974;28;20516;-85
2023/08/16 08:42:12;;;;;;;6.87;6.20;;;;;;;26.46;63.81;101529.56;4965987;28;20450;-85
2023/08/16 08:44:43;;;;;;;7.13;6.23;;;;;;;26.25;65.16;101534.47;4964235;28;20444;-86
2023/08/16 08:47:15;;;;;;;5.30;4.80;;;;;;;26.11;63.79;101539.84;4960643;28;20482;-85
2023/08/16 08:49:46;;;;;;;9.23;7.50;;;;;;;26.12;64.84;101535.97;4967181;28;20437;-85
2023/08/16 08:52:21;;;;;;;7.23;5.27;;;;;;;26.16;64.47;101538.97;4961276;28;20448;-86
2023/08/16 08:54:51;;;;;;;6.20;5.40;;;;;;;25.82;64.09;101539.81;4959817;28;20436;-85
2023/08/16 08:57:25;;;;;;;8.63;5.73;;;;;;;25.60;66.49;101539.41;4967357;28;20471;-85
2023/08/16 08:59:57;;;;;;;7.57;6.27;;;;;;;25.59;66.65;101539.69;4980035;28;20481;-84
2023/08/16 09:02:30;;;;;;;12.43;5.33;;;;;;;25.33;66.04;101548.09;4987772;28;20420;-84
2023/08/16 09:05:04;;;;;;;7.50;5.60;;;;;;;25.10;67.77;101537.69;4980495;28;20424;-84
2023/08/16 09:07:35;;;;;;;9.07;6.60;;;;;;;25.00;69.19;101538.56;4970956;28;20482;-85
2023/08/16 09:10:10;;;;;;;14.07;6.33;;;;;;;25.23;68.25;101550.91;4947380;28;20478;-86
2023/08/16 09:12:41;;;;;;;7.17;6.47;;;;;;;25.35;67.74;101548.66;4962594;29;20447;-86
2023/08/16 09:15:11;;;;;;;5.40;4.90;;;;;;;25.08;68.02;101545.44;4974278;28;20453;-86
2023/08/16 09:17:42;;;;;;;10.93;5.50;;;;;;;25.29;66.80;101537.88;4976105;28;20462;-86
2023/08/16 09:20:13;;;;;;;8.60;6.07;;;;;;;25.37;65.38;101546.41;4973194;28;20454;-84
2023/08/16 09:22:44;;;;;;;14.57;7.07;;;;;;;25.51;65.86;101541.09;4978617;28;20455;-84
2023/08/16 09:25:15;;;;;;;5.90;5.50;;;;;;;25.70;65.12;101555.16;4967228;28;20446;-84
2023/08/16 09:28:06;;;;;;;7.33;5.93;;;;;;;26.00;65.29;101549.34;4994281;28;20580;-85
2023/08/16 09:30:40;;;;;;;7.53;6.50;;;;;;;26.25;62.66;101551.13;4997510;28;20462;-85
2023/08/16 09:33:15;;;;;;;5.70;5.10;;;;;;;26.31;62.51;101544.41;4995551;28;20462;-85
2023/08/16 09:36:04;;;;;;;6.77;6.10;;;;;;;26.15;63.94;101540.91;4987126;28;20432;-85
2023/08/16 09:38:42;;;;;;;7.67;6.87;;;;;;;26.69;63.21;101545.41;4942666;28;20659;-84
2023/08/16 09:41:16;;;;;;;6.57;5.87;;;;;;;26.92;63.25;101546.56;4963134;28;20475;-84
2023/08/16 09:43:46;;;;;;;12.07;6.37;;;;;;;27.05;61.95;101549.47;4966196;28;20468;-85
2023/08/16 09:46:20;;;;;;;5.57;5.07;;;;;;;26.97;62.59;101535.41;4960795;28;20494;-84
2023/08/16 09:48:51;;;;;;;6.13;5.63;;;;;;;27.22;61.25;101543.41;4964025;28;20460;-83
2023/08/16 09:51:23;;;;;;;6.10;5.20;;;;;;;26.86;61.77;101544.97;4996499;28;20581;-85
2023/08/16 09:54:17;;;;;;;7.03;5.60;;;;;;;26.43;63.46;101527.38;4984629;28;20448;-85
2023/08/16 09:56:48;;;;;;;5.70;5.20;;;;;;;26.32;62.96;101535.81;4961678;28;20452;-84
2023/08/16 09:59:21;;;;;;;5.90;5.40;;;;;;;26.44;62.34;101532.63;4958392;28;20475;-83
2023/08/16 10:01:55;;;;;;;6.30;5.70;;;;;;;26.51;62.61;101526.75;4980893;28;20939;-85
2023/08/16 10:04:42;;;;;;;6.70;5.60;;;;;;;26.62;61.07;101533.84;4973717;28;20951;-85
2023/08/16 10:07:16;;;;;;;5.93;5.23;;;;;;;26.46;61.28;101529.56;4945481;29;20465;-85
2023/08/16 10:09:49;;;;;;;5.70;5.30;;;;;;;26.65;60.86;101522.97;4958535;28;20967;-85
2023/08/16 10:12:19;;;;;;;5.67;5.17;;;;;;;26.62;60.23;101525.53;4976394;28;20485;-85
2023/08/16 10:14:49;;;;;;;4.90;4.43;;;;;;;26.73;60.85;101525.09;4958978;28;20437;-85
2023/08/16 10:17:21;;;;;;;6.80;5.70;;;;;;;26.89;60.05;101517.44;4968661;28;20433;-84
2023/08/16 10:19:58;;;;;;;5.37;4.90;;;;;;;26.87;60.38;101514.13;4974817;28;20513;-84
2023/08/16 10:22:38;;;;;;;6.53;5.60;;;;;;;26.88;59.67;101513.00;4973839;28;20521;-84
2023/08/16 10:25:17;;;;;;;6.00;5.50;;;;;;;27.16;59.51;101512.09;4952449;29;20489;-84
2023/08/16 10:27:47;;;;;;;6.73;5.50;;;;;;;27.30;58.51;101508.59;4972040;29;20462;-85
2023/08/16 10:30:22;;;;;;;7.63;4.87;;;;;;;27.38;58.18;101511.53;4955652;28;20432;-84
2023/08/16 10:32:58;;;;;;;5.43;4.90;;;;;;;27.34;57.94;101512.44;4979145;28;20426;-85
2023/08/16 10:35:30;;;;;;;5.17;4.67;;;;;;;27.06;57.85;101509.44;4985707;28;20463;-85
2023/08/16 10:37:59;;;;;;;8.13;5.40;;;;;;;27.31;57.59;101504.66;4986990;28;20496;-84
2023/08/16 10:40:30;;;;;;;9.43;5.77;;;;;;;27.37;57.62;101500.69;4964165;28;20462;-84
2023/08/16 10:43:00;;;;;;;5.40;4.90;;;;;;;27.56;56.66;101499.59;4977184;28;20457;-84
2023/08/16 10:45:34;;;;;;;5.73;5.00;;;;;;;27.95;56.29;101504.00;4969205;28;20479;-85
2023/08/16 10:48:11;;;;;;;6.10;5.50;;;;;;;27.96;55.76;101514.81;4989764;28;20469;-83
2023/08/16 10:50:43;;;;;;;6.43;5.03;;;;;;;28.07;54.86;101509.91;4993531;28;20501;-84
2023/08/16 10:53:19;;;;;;;5.93;5.33;;;;;;;28.12;54.83;101509.03;4986133;28;20485;-85
2023/08/16 10:55:55;;;;;;;7.63;4.83;;;;;;;28.36;54.35;101501.34;4961435;29;20451;-84
2023/08/16 10:58:26;;;;;;;4.93;4.03;;;;;;;28.27;54.30;101509.56;4956043;29;20879;-84
2023/08/16 11:00:58;;;;;;;15.87;5.03;;;;;;;27.96;54.29;101509.25;4983838;28;20491;-83
2023/08/16 11:03:34;;;;;;;5.57;5.07;;;;;;;28.12;54.20;101506.25;4971486;28;20494;-85
2023/08/16 11:06:10;;;;;;;5.27;4.67;;;;;;;28.52;53.04;101511.06;4954264;29;20455;-85
2023/08/16 11:08:41;;;;;;;7.13;5.17;;;;;;;28.72;52.44;101509.88;4955042;29;20485;-85
2023/08/16 11:11:13;;;;;;;5.60;5.10;;;;;;;28.29;52.61;101512.06;4963354;28;20478;-85
2023/08/16 11:13:43;;;;;;;4.90;4.33;;;;;;;28.51;51.70;101509.44;4947597;29;20463;-84
2023/08/16 11:16:13;;;;;;;4.83;4.43;;;;;;;28.59;52.06;101505.91;4948993;29;20446;-84
2023/08/16 11:18:44;;;;;;;5.10;4.60;;;;;;;28.44;51.05;101511.78;4948944;28;20479;-85
2023/08/16 11:21:20;;;;;;;5.37;4.90;;;;;;;28.62;51.18;101508.06;4950006;29;20928;-84
2023/08/16 11:23:54;;;;;;;6.23;5.03;;;;;;;29.06;50.71;101501.91;4975163;28;20454;-85
2023/08/16 11:26:25;;;;;;;6.10;5.50;;;;;;;29.19;49.42;101505.81;4969464;28;20458;-85
2023/08/16 11:28:54;;;;;;;5.50;5.00;;;;;;;29.56;49.19;101515.88;4953330;28;20509;-86
2023/08/16 11:31:27;;;;;;;5.60;5.10;;;;;;;29.46;49.71;101508.56;4967398;28;20463;-85
2023/08/16 11:33:56;;;;;;;5.20;4.70;;;;;;;29.58;50.26;101513.59;4971204;28;20444;-85
2023/08/16 11:36:27;;;;;;;6.63;5.60;;;;;;;29.78;49.58;101508.34;4984043;28;20450;-83